createdAt,value
2022-12-24T00:01:32.328Z,100160.34
2022-12-24T00:03:58.716Z,100162.63
2022-12-24T00:06:25.096Z,100167.84
2022-12-24T00:08:51.417Z,100171.41
2022-12-24T00:11:18.004Z,100165.53
2022-12-24T00:13:44.406Z,100174.09
2022-12-24T00:16:10.862Z,100187.63
2022-12-24T00:18:43.378Z,100179.69
2022-12-24T00:21:12.120Z,100189.66
2022-12-24T00:23:38.487Z,100188.38
2022-12-24T00:26:04.947Z,100190.84
2022-12-24T00:28:31.327Z,100188.78
2022-12-24T00:30:57.743Z,100180.47
2022-12-24T00:33:24.812Z,100187.97
2022-12-24T00:35:52.075Z,100181.31
2022-12-24T00:38:18.506Z,100187.59
2022-12-24T00:40:44.837Z,100184.47
2022-12-24T00:43:11.151Z,100181.97
2022-12-24T00:45:37.521Z,100185.13
2022-12-24T00:48:03.883Z,100185.13
2022-12-24T00:50:30.175Z,100192.59
2022-12-24T00:52:56.594Z,100200.72
2022-12-24T00:55:22.925Z,100205.72
2022-12-24T00:57:49.261Z,100203.88
2022-12-24T01:00:17.763Z,100206.38
2022-12-24T01:02:44.453Z,100206.38
2022-12-24T01:05:11.289Z,100205.34
2022-12-24T01:07:38.985Z,100208.47
2022-12-24T01:10:05.910Z,100209.28
2022-12-24T01:12:32.466Z,100208.28
2022-12-24T01:14:58.818Z,100219.09
2022-12-24T01:17:25.092Z,100222.63
2022-12-24T01:19:51.438Z,100232.66
2022-12-24T01:22:17.685Z,100227.22
2022-12-24T01:24:44.168Z,100226.19
2022-12-24T01:27:10.483Z,100233.25
2022-12-24T01:29:36.757Z,100240.75
2022-12-24T01:32:03.168Z,100242.22
2022-12-24T01:34:29.648Z,100240.94
2022-12-24T01:36:55.992Z,100235.50
2022-12-24T01:39:22.283Z,100245.06
2022-12-24T01:42:07.109Z,100246.31
2022-12-24T01:44:37.002Z,100258.00
2022-12-24T01:47:09.225Z,100251.28
2022-12-24T01:49:37.345Z,100253.00
2022-12-24T01:52:16.255Z,100250.44
2022-12-24T01:54:54.810Z,100252.91
2022-12-24T01:57:23.337Z,100260.00
2022-12-24T01:59:51.727Z,100257.69
2022-12-24T02:02:18.398Z,100268.09
2022-12-24T02:04:53.686Z,100265.59
2022-12-24T02:07:20.155Z,100272.41
2022-12-24T02:09:47.406Z,100277.81
2022-12-24T02:12:13.974Z,100274.88
2022-12-24T02:14:40.429Z,100283.00
2022-12-24T02:17:18.947Z,100281.53
2022-12-24T02:19:51.520Z,100285.72
2022-12-24T02:22:27.069Z,100296.44
2022-12-24T02:25:02.645Z,100285.84
2022-12-24T02:27:47.772Z,100299.31
2022-12-24T02:30:16.477Z,100312.00
2022-12-24T02:32:57.840Z,100304.91
2022-12-24T02:35:30.572Z,100312.19
2022-12-24T02:38:06.456Z,100311.78
2022-12-24T02:40:48.719Z,100318.03
2022-12-24T02:43:17.243Z,100324.81
2022-12-24T02:45:44.961Z,100321.28
2022-12-24T02:48:13.585Z,100329.19
2022-12-24T02:50:53.697Z,100331.31
2022-12-24T02:53:20.052Z,100334.00
2022-12-24T02:56:01.969Z,100332.78
2022-12-24T02:58:31.006Z,100339.03
2022-12-24T03:01:16.099Z,100340.28
2022-12-24T03:03:49.125Z,100336.53
2022-12-24T03:06:53.830Z,100338.25
2022-12-24T03:09:38.803Z,100348.63
2022-12-24T03:12:10.420Z,100349.28
2022-12-24T03:14:38.177Z,100344.06
2022-12-24T03:17:04.560Z,100347.63
2022-12-24T03:19:31.464Z,100343.22
2022-12-24T03:21:59.845Z,100343.22
2022-12-24T03:24:26.252Z,100349.47
2022-12-24T03:26:52.843Z,100352.38
2022-12-24T03:29:19.320Z,100348.03
2022-12-24T03:31:47.202Z,100365.31
2022-12-24T03:34:14.749Z,100359.44
2022-12-24T03:36:41.847Z,100365.69
2022-12-24T03:39:09.066Z,100374.44
2022-12-24T03:41:36.188Z,100369.88
2022-12-24T03:44:02.818Z,100357.97
2022-12-24T03:46:29.135Z,100367.25
2022-12-24T03:48:55.468Z,100375.09
2022-12-24T03:51:23.330Z,100376.13
2022-12-24T03:53:51.775Z,100373.00
2022-12-24T03:56:18.186Z,100377.94
2022-12-24T03:58:44.918Z,100378.72
2022-12-24T04:01:11.357Z,100384.69
2022-12-24T04:03:37.947Z,100381.97
2022-12-24T04:06:08.296Z,100376.94
2022-12-24T04:08:34.813Z,100378.56
2022-12-24T04:11:06.172Z,100388.50
2022-12-24T04:13:35.968Z,100377.47
2022-12-24T04:16:04.577Z,100375.16
2022-12-24T04:18:31.058Z,100379.66
2022-12-24T04:20:57.687Z,100381.69
2022-12-24T04:23:24.017Z,100394.31
2022-12-24T04:25:50.789Z,100391.38
2022-12-24T04:28:17.484Z,100396.13
2022-12-24T04:30:44.162Z,100411.84
2022-12-24T04:33:10.660Z,100406.44
2022-12-24T04:35:41.328Z,100404.78
2022-12-24T04:38:08.436Z,100418.31
2022-12-24T04:40:34.880Z,100421.56
2022-12-24T04:43:01.244Z,100425.31
2022-12-24T04:45:27.610Z,100429.97
2022-12-24T04:47:54.098Z,100433.28
2022-12-24T04:50:20.487Z,100435.59
2022-12-24T04:52:46.872Z,100438.31
2022-12-24T04:55:13.293Z,100443.72
2022-12-24T04:57:39.684Z,100449.13
2022-12-24T05:00:06.890Z,100435.78
2022-12-24T05:02:33.557Z,100425.00
2022-12-24T05:05:00.147Z,100417.06
2022-12-24T05:07:26.398Z,100427.44
2022-12-24T05:09:52.668Z,100425.97
2022-12-24T05:12:18.934Z,100434.44
2022-12-24T05:14:45.373Z,100435.44
2022-12-24T05:17:11.717Z,100436.22
2022-12-24T05:19:38.069Z,100433.25
2022-12-24T05:22:23.011Z,100440.69
2022-12-24T05:25:07.730Z,100440.69
2022-12-24T05:27:34.132Z,100443.41
2022-12-24T05:30:00.439Z,100446.50
2022-12-24T05:32:27.268Z,100416.53
2022-12-24T05:34:53.653Z,100454.19
2022-12-24T05:37:19.915Z,100453.56
2022-12-24T05:39:46.238Z,100453.19
2022-12-24T05:42:12.545Z,100452.81
2022-12-24T05:44:38.803Z,100459.50
2022-12-24T05:47:05.159Z,100472.34
2022-12-24T05:49:31.725Z,100460.16
2022-12-24T05:51:58.115Z,100467.63
2022-12-24T05:54:24.402Z,100467.63
2022-12-24T05:56:50.654Z,100468.66
2022-12-24T05:59:16.906Z,100475.06
2022-12-24T06:01:47.182Z,100472.34
2022-12-24T06:04:14.068Z,100474.44
2022-12-24T06:06:40.665Z,100476.94
2022-12-24T06:09:07.372Z,100473.66
2022-12-24T06:11:33.704Z,100468.53
2022-12-24T06:14:00.071Z,100467.50
2022-12-24T06:16:26.592Z,100455.41
2022-12-24T06:18:53.063Z,100468.25
2022-12-24T06:21:19.704Z,100480.09
2022-12-24T06:23:46.450Z,100478.41
2022-12-24T06:26:14.214Z,100486.16
2022-12-24T06:28:40.648Z,100491.63
2022-12-24T06:31:10.638Z,100484.38
2022-12-24T06:33:37.032Z,100489.97
2022-12-24T06:36:06.813Z,100486.03
2022-12-24T06:38:35.621Z,100488.34
2022-12-24T06:41:05.700Z,100490.03
2022-12-24T06:43:34.511Z,100496.75
2022-12-24T06:46:01.792Z,100506.34
2022-12-24T06:48:28.196Z,100514.25
2022-12-24T06:50:54.585Z,100514.69
2022-12-24T06:53:21.127Z,100525.13
2022-12-24T06:55:47.533Z,100524.31
2022-12-24T06:58:13.934Z,100527.41
2022-12-24T07:00:40.341Z,100537.91
2022-12-24T07:03:06.701Z,100531.03
2022-12-24T07:05:32.965Z,100538.28
2022-12-24T07:07:59.325Z,100543.69
2022-12-24T07:10:25.720Z,100539.50
2022-12-24T07:12:51.970Z,100542.03
2022-12-24T07:15:18.487Z,100538.28
2022-12-24T07:17:45.205Z,100539.97
2022-12-24T07:20:12.336Z,100543.88
2022-12-24T07:22:38.699Z,100542.41
2022-12-24T07:25:05.248Z,100548.66
2022-12-24T07:27:31.617Z,100550.31
2022-12-24T07:29:57.993Z,100553.22
2022-12-24T07:32:24.375Z,100560.28
2022-12-24T07:34:51.763Z,100558.59
2022-12-24T07:37:18.126Z,100561.31
2022-12-24T07:39:44.968Z,100565.69
2022-12-24T07:42:11.498Z,100569.03
2022-12-24T07:44:38.107Z,100571.19
2022-12-24T07:47:04.602Z,100576.41
2022-12-24T07:49:31.149Z,100575.38
2022-12-24T07:51:59.787Z,100574.34
2022-12-24T07:54:26.127Z,100578.75
2022-12-24T07:56:52.538Z,100576.22
2022-12-24T07:59:18.960Z,100573.34
2022-12-24T08:01:45.693Z,100579.28
2022-12-24T08:04:12.268Z,100585.50
2022-12-24T08:06:39.214Z,100578.25
2022-12-24T08:09:06.063Z,100591.41
2022-12-24T08:11:32.342Z,100600.97
2022-12-24T08:13:58.781Z,100606.50
2022-12-24T08:16:25.317Z,100615.22
2022-12-24T08:18:51.662Z,100610.69
2022-12-24T08:21:18.029Z,100603.66
2022-12-24T08:23:46.126Z,100609.56
2022-12-24T08:26:12.458Z,100606.91
2022-12-24T08:28:39.142Z,100615.50
2022-12-24T08:31:15.843Z,100609.50
2022-12-24T08:33:42.162Z,100607.72
2022-12-24T08:36:08.770Z,100611.75
2022-12-24T08:38:35.189Z,100622.63
2022-12-24T08:41:07.444Z,100626.72
2022-12-24T08:43:33.877Z,100626.16
2022-12-24T08:46:04.938Z,100631.56
2022-12-24T08:48:32.084Z,100629.03
2022-12-24T08:50:58.477Z,100640.69
2022-12-24T08:53:24.935Z,100640.44
2022-12-24T08:55:55.937Z,100627.94
2022-12-24T08:58:22.782Z,100630.47
2022-12-24T09:00:49.357Z,100631.84
2022-12-24T09:03:19.549Z,100632.03
2022-12-24T09:05:49.961Z,100635.34
2022-12-24T09:08:16.424Z,100644.09
2022-12-24T09:10:42.729Z,100647.47
2022-12-24T09:13:09.105Z,100654.53
2022-12-24T09:15:35.558Z,100659.94
2022-12-24T09:18:02.032Z,100665.53
2022-12-24T09:20:28.563Z,100672.06
2022-12-24T09:22:54.851Z,100676.25
2022-12-24T09:25:21.314Z,100684.00
2022-12-24T09:27:47.971Z,100693.63
2022-12-24T09:30:14.813Z,100684.28
2022-12-24T09:32:41.205Z,100692.19
2022-12-24T09:35:07.727Z,100686.31
2022-12-24T09:37:34.047Z,100705.63
2022-12-24T09:40:00.429Z,100706.50
2022-12-24T09:42:34.082Z,100716.94
2022-12-24T09:45:08.120Z,100721.69
2022-12-24T09:47:34.596Z,100719.63
2022-12-24T09:50:03.279Z,100728.00
2022-12-24T09:52:32.911Z,100720.56
2022-12-24T09:55:04.504Z,100715.81
2022-12-24T09:57:39.721Z,100729.59
2022-12-24T10:00:16.465Z,100728.16
2022-12-24T10:02:43.060Z,100726.13
2022-12-24T10:05:13.679Z,100734.50
2022-12-24T10:07:46.251Z,100738.91
2022-12-24T10:10:27.388Z,100738.25
2022-12-24T10:13:04.416Z,100747.03
2022-12-24T10:15:35.366Z,100739.53
2022-12-24T10:18:08.098Z,100742.91
2022-12-24T10:20:52.467Z,100750.44
2022-12-24T10:23:28.221Z,100739.69
2022-12-24T10:26:18.076Z,100734.06
2022-12-24T10:28:53.272Z,100742.28
2022-12-24T10:31:23.080Z,100735.81
2022-12-24T10:33:53.102Z,100740.28
2022-12-24T10:36:23.353Z,100750.94
2022-12-24T10:38:49.637Z,100747.19
2022-12-24T10:41:16.234Z,100749.50
2022-12-24T10:43:43.891Z,100750.59
2022-12-24T10:46:19.495Z,100751.69
2022-12-24T10:48:51.093Z,100746.66
2022-12-24T10:51:37.925Z,100748.75
2022-12-24T10:54:11.888Z,100750.78
2022-12-24T10:56:43.198Z,100742.81
2022-12-24T10:59:30.550Z,100743.81
2022-12-24T11:01:58.271Z,100740.28
2022-12-24T11:04:28.750Z,100734.41
2022-12-24T11:07:00.409Z,100740.47
2022-12-24T11:09:26.927Z,100740.47
2022-12-24T11:11:54.530Z,100747.19
2022-12-24T11:14:21.264Z,100747.44
2022-12-24T11:16:52.576Z,100750.41
2022-12-24T11:19:20.629Z,100751.59
2022-12-24T11:21:47.099Z,100750.16
2022-12-24T11:24:13.535Z,100742.59
2022-12-24T11:26:41.183Z,100747.16
2022-12-24T11:29:24.190Z,100741.13
2022-12-24T11:31:52.597Z,100737.41
2022-12-24T11:34:19.049Z,100735.72
2022-12-24T11:36:45.683Z,100734.81
2022-12-24T11:39:19.104Z,100742.81
2022-12-24T11:41:45.537Z,100740.22
2022-12-24T11:44:12.508Z,100747.31
2022-12-24T11:46:46.206Z,100746.28
2022-12-24T11:49:12.580Z,100743.63
2022-12-24T11:51:40.272Z,100743.50
2022-12-24T11:54:09.564Z,100736.47
2022-12-24T11:56:43.719Z,100740.47
2022-12-24T11:59:22.197Z,100743.84
2022-12-24T12:01:48.660Z,100744.06
2022-12-24T12:04:16.955Z,100739.88
2022-12-24T12:07:01.987Z,100749.25
2022-12-24T12:09:28.281Z,100730.69
2022-12-24T12:11:58.843Z,100742.53
2022-12-24T12:14:32.811Z,100741.16
2022-12-24T12:17:03.579Z,100742.44
2022-12-24T12:19:37.660Z,100746.06
2022-12-24T12:22:05.334Z,100754.91
2022-12-24T12:24:36.054Z,100747.22
2022-12-24T12:27:25.506Z,100757.00
2022-12-24T12:29:58.991Z,100762.09
2022-12-24T12:32:27.755Z,100754.22
2022-12-24T12:34:58.603Z,100757.94
2022-12-24T12:37:29.377Z,100762.09
2022-12-24T12:39:55.787Z,100757.94
2022-12-24T12:42:29.236Z,100764.88
2022-12-24T12:45:05.238Z,100771.50
2022-12-24T12:47:31.571Z,100775.44
2022-12-24T12:50:09.697Z,100769.25
2022-12-24T12:52:43.629Z,100765.47
2022-12-24T12:55:28.655Z,100762.19
2022-12-24T12:57:59.760Z,100758.88
2022-12-24T13:00:28.810Z,100765.09
2022-12-24T13:03:07.649Z,100761.38
2022-12-24T13:05:37.164Z,100749.22
2022-12-24T13:08:17.217Z,100759.66
2022-12-24T13:10:55.885Z,100770.09
2022-12-24T13:13:25.405Z,100761.50
2022-12-24T13:15:57.822Z,100773.66
2022-12-24T13:18:30.236Z,100773.63
2022-12-24T13:20:56.821Z,100771.09
2022-12-24T13:23:24.468Z,100781.53
2022-12-24T13:25:52.316Z,100777.97
2022-12-24T13:28:24.824Z,100772.34
2022-12-24T13:30:51.241Z,100779.81
2022-12-24T13:33:43.565Z,100791.75
2022-12-24T13:36:16.885Z,100788.66
2022-12-24T13:38:44.744Z,100797.63
2022-12-24T13:41:36.158Z,100800.16
2022-12-24T13:44:10.964Z,100803.72
2022-12-24T13:46:59.572Z,100795.16
2022-12-24T13:49:29.141Z,100798.69
2022-12-24T13:52:25.166Z,100809.13
2022-12-24T13:54:54.650Z,100810.59
2022-12-24T13:57:30.161Z,100817.47
2022-12-24T14:00:05.875Z,100813.38
2022-12-24T14:02:34.946Z,100806.69
2022-12-24T14:05:03.316Z,100808.06
2022-12-24T14:07:30.381Z,100812.53
2022-12-24T14:09:57.377Z,100810.59
2022-12-24T14:12:33.132Z,100817.88
2022-12-24T14:15:19.442Z,100817.63
2022-12-24T14:17:47.805Z,100802.41
2022-12-24T14:20:15.720Z,100816.13
2022-12-24T14:22:45.417Z,100818.56
2022-12-24T14:25:19.706Z,100812.72
2022-12-24T14:27:52.330Z,100815.13
2022-12-24T14:30:20.108Z,100826.34
2022-12-24T14:32:47.223Z,100818.41
2022-12-24T14:35:13.623Z,100820.66
2022-12-24T14:37:41.117Z,100819.56
2022-12-24T14:40:09.042Z,100828.31
2022-12-24T14:42:54.025Z,100837.38
2022-12-24T14:45:29.529Z,100846.88
2022-12-24T14:48:15.704Z,100846.94
2022-12-24T14:50:51.103Z,100847.41
2022-12-24T14:53:19.245Z,100849.75
2022-12-24T14:55:47.241Z,100846.84
2022-12-24T14:58:24.544Z,100858.91
2022-12-24T15:00:51.611Z,100862.19
2022-12-24T15:03:19.237Z,100866.75
2022-12-24T15:05:50.904Z,100870.50
2022-12-24T15:08:23.821Z,100873.03
2022-12-24T15:10:52.325Z,100874.03
2022-12-24T15:13:18.609Z,100879.25
2022-12-24T15:15:51.965Z,100878.63
2022-12-24T15:18:22.258Z,100885.28
2022-12-24T15:20:51.061Z,100882.75
2022-12-24T15:23:25.941Z,100896.94
2022-12-24T15:25:52.333Z,100894.41
2022-12-24T15:28:19.729Z,100903.19
2022-12-24T15:30:46.160Z,100904.69
2022-12-24T15:33:12.581Z,100897.41
2022-12-24T15:35:55.574Z,100895.72
2022-12-24T15:38:24.452Z,100908.63
2022-12-24T15:40:51.374Z,100902.09
2022-12-24T15:43:18.000Z,100903.09
2022-12-24T15:45:51.283Z,100913.94
2022-12-24T15:48:21.101Z,100905.00
2022-12-24T15:50:48.809Z,100916.00
2022-12-24T15:53:19.330Z,100919.94
2022-12-24T15:56:07.047Z,100921.13
2022-12-24T15:58:40.917Z,100926.72
2022-12-24T16:01:13.591Z,100922.53
2022-12-24T16:03:41.181Z,100920.38
2022-12-24T16:06:08.935Z,100915.81
2022-12-24T16:08:36.385Z,100922.09
2022-12-24T16:11:05.768Z,100910.41
2022-12-24T16:13:36.288Z,100911.44
2022-12-24T16:16:05.987Z,100909.28
2022-12-24T16:18:37.889Z,100909.38
2022-12-24T16:21:05.217Z,100910.97
2022-12-24T16:23:57.721Z,100904.13
2022-12-24T16:26:24.157Z,100901.16
2022-12-24T16:28:50.587Z,100895.94
2022-12-24T16:31:28.848Z,100891.25
2022-12-24T16:33:57.576Z,100903.94
2022-12-24T16:36:24.085Z,100909.38
2022-12-24T16:39:09.001Z,100902.94
2022-12-24T16:41:55.425Z,100908.00
2022-12-24T16:44:21.766Z,100908.28
2022-12-24T16:46:48.524Z,100913.00
2022-12-24T16:49:16.899Z,100914.41
2022-12-24T16:51:43.311Z,100913.53
2022-12-24T16:54:11.692Z,100920.47
2022-12-24T16:56:38.306Z,100927.56
2022-12-24T16:59:04.772Z,100922.16
2022-12-24T17:01:32.119Z,100919.44
2022-12-24T17:03:58.837Z,100932.47
2022-12-24T17:06:25.265Z,100938.28
2022-12-24T17:08:51.597Z,100941.91
2022-12-24T17:11:21.689Z,100936.66
2022-12-24T17:13:48.136Z,100940.91
2022-12-24T17:16:14.601Z,100947.78
2022-12-24T17:18:41.024Z,100945.97
2022-12-24T17:21:07.530Z,100938.22
2022-12-24T17:23:33.865Z,100946.84
2022-12-24T17:26:00.402Z,100929.94
2022-12-24T17:28:27.070Z,100925.84
2022-12-24T17:30:53.672Z,100917.22
2022-12-24T17:33:20.199Z,100916.84
2022-12-24T17:35:48.337Z,100917.72
2022-12-24T17:38:14.807Z,100916.00
2022-12-24T17:40:41.235Z,100927.91
2022-12-24T17:43:07.654Z,100936.03
2022-12-24T17:45:34.130Z,100933.69
2022-12-24T17:48:00.489Z,100935.06
2022-12-24T17:50:26.916Z,100943.91
2022-12-24T17:52:53.300Z,100939.84
2022-12-24T17:55:19.708Z,100944.38
2022-12-24T17:57:46.139Z,100934.22
2022-12-24T18:00:12.993Z,100941.22
2022-12-24T18:02:39.626Z,100939.16
2022-12-24T18:05:06.220Z,100934.31
2022-12-24T18:07:32.559Z,100950.88
2022-12-24T18:09:59.844Z,100948.38
2022-12-24T18:12:26.360Z,100969.97
2022-12-24T18:14:52.765Z,100971.34
2022-12-24T18:17:19.139Z,100977.13
2022-12-24T18:19:45.584Z,100984.19
2022-12-24T18:22:12.013Z,100977.28
2022-12-24T18:24:38.500Z,100977.28
2022-12-24T18:27:04.842Z,100985.53
2022-12-24T18:29:31.305Z,100980.78
2022-12-24T18:31:57.761Z,100977.78
2022-12-24T18:34:24.300Z,100981.81
2022-12-24T18:36:55.144Z,100978.94
2022-12-24T18:39:22.104Z,100969.34
2022-12-24T18:41:49.455Z,100966.25
2022-12-24T18:44:20.861Z,100965.72
2022-12-24T18:46:51.047Z,100959.38
2022-12-24T18:49:17.615Z,100961.06
2022-12-24T18:51:44.125Z,100955.47
2022-12-24T18:54:10.625Z,100961.03
2022-12-24T18:56:37.048Z,100964.97
2022-12-24T18:59:03.771Z,100962.59
2022-12-24T19:01:31.843Z,100963.28
2022-12-24T19:03:59.004Z,100965.16
2022-12-24T19:06:25.706Z,100951.34
2022-12-24T19:09:00.786Z,100948.25
2022-12-24T19:11:28.999Z,100941.19
2022-12-24T19:13:55.476Z,100944.19
2022-12-24T19:16:22.302Z,100937.78
2022-12-24T19:18:49.101Z,100944.53
2022-12-24T19:21:17.025Z,100947.06
2022-12-24T19:23:43.820Z,100952.09
2022-12-24T19:26:10.771Z,100950.91
2022-12-24T19:28:37.622Z,100950.91
2022-12-24T19:31:05.467Z,100958.84
2022-12-24T19:33:41.977Z,100959.88
2022-12-24T19:36:10.949Z,100961.72
2022-12-24T19:38:37.423Z,100949.41
2022-12-24T19:41:07.419Z,100954.34
2022-12-24T19:43:36.649Z,100965.25
2022-12-24T19:46:03.101Z,100961.56
2022-12-24T19:48:29.566Z,100971.03
2022-12-24T19:51:00.248Z,100980.28
2022-12-24T19:53:26.672Z,100985.53
2022-12-24T19:55:53.138Z,100988.59
2022-12-24T19:58:19.565Z,100991.31
2022-12-24T20:00:46.346Z,100988.06
2022-12-24T20:03:12.845Z,100989.25
2022-12-24T20:05:42.930Z,100974.56
2022-12-24T20:08:09.301Z,100980.81
2022-12-24T20:10:42.871Z,100984.19
2022-12-24T20:13:09.860Z,100993.28
2022-12-24T20:15:40.176Z,100991.94
2022-12-24T20:18:06.837Z,100990.88
2022-12-24T20:20:33.202Z,100996.13
2022-12-24T20:22:59.672Z,101004.03
2022-12-24T20:25:26.076Z,101001.03
2022-12-24T20:27:52.719Z,100987.38
2022-12-24T20:30:19.153Z,100982.44
2022-12-24T20:32:45.565Z,100986.66
2022-12-24T20:35:11.922Z,100979.88
2022-12-24T20:37:45.490Z,100985.44
2022-12-24T20:40:12.535Z,100987.28
2022-12-24T20:42:39.006Z,100984.25
2022-12-24T20:45:05.907Z,100985.28
2022-12-24T20:47:33.223Z,100985.44
2022-12-24T20:49:59.746Z,100996.59
2022-12-24T20:52:26.288Z,101003.50
2022-12-24T20:54:52.701Z,101005.56
2022-12-24T20:57:25.167Z,101003.69
2022-12-24T20:59:53.244Z,100987.84
2022-12-24T21:02:19.930Z,101005.03
2022-12-24T21:04:46.572Z,101006.75
2022-12-24T21:07:14.358Z,101007.25
2022-12-24T21:09:41.209Z,101000.88
2022-12-24T21:12:28.394Z,101002.69
2022-12-24T21:14:54.828Z,100985.53
2022-12-24T21:17:21.515Z,100998.34
2022-12-24T21:19:48.067Z,101001.03
2022-12-24T21:22:14.523Z,101004.25
2022-12-24T21:24:40.897Z,101015.03
2022-12-24T21:27:07.226Z,101001.38
2022-12-24T21:29:33.570Z,101009.81
2022-12-24T21:32:00.295Z,101011.34
2022-12-24T21:34:26.801Z,101005.44
2022-12-24T21:36:53.158Z,101007.28
2022-12-24T21:39:19.550Z,101010.81
2022-12-24T21:41:45.952Z,101011.81
2022-12-24T21:44:12.374Z,101014.88
2022-12-24T21:46:38.817Z,101019.75
2022-12-24T21:49:23.761Z,101021.47
2022-12-24T21:51:50.221Z,101025.84
2022-12-24T21:54:33.040Z,101011.50
2022-12-24T21:57:21.058Z,101016.56
2022-12-24T21:59:51.661Z,101011.81
2022-12-24T22:02:19.307Z,101005.88
2022-12-24T22:04:46.050Z,101003.69
2022-12-24T22:07:37.848Z,101009.28
2022-12-24T22:10:23.355Z,101009.09
2022-12-24T22:12:49.760Z,101004.38
2022-12-24T22:15:16.288Z,100991.22
2022-12-24T22:17:42.743Z,100996.28
2022-12-24T22:20:09.752Z,100996.63
2022-12-24T22:22:36.173Z,100988.00
2022-12-24T22:25:02.506Z,100985.97
2022-12-24T22:27:28.919Z,100987.84
2022-12-24T22:29:55.393Z,100990.53
2022-12-24T22:32:21.768Z,100986.66
2022-12-24T22:34:49.450Z,100995.28
2022-12-24T22:37:16.370Z,100988.69
2022-12-24T22:39:43.040Z,100983.13
2022-12-24T22:42:09.481Z,100983.31
2022-12-24T22:44:35.870Z,100973.19
2022-12-24T22:47:02.543Z,100976.06
2022-12-24T22:49:28.943Z,100965.78
2022-12-24T22:51:58.578Z,100967.47
2022-12-24T22:54:25.321Z,100968.34
2022-12-24T22:56:51.717Z,100969.34
2022-12-24T22:59:18.288Z,100968.00
2022-12-24T23:01:45.952Z,100952.16
2022-12-24T23:04:12.994Z,100955.50
2022-12-24T23:06:40.072Z,100946.03
2022-12-24T23:09:07.421Z,100935.41
2022-12-24T23:11:33.921Z,100920.25
2022-12-24T23:14:18.848Z,100918.41
2022-12-24T23:16:45.279Z,100923.44
2022-12-24T23:19:11.752Z,100919.22
2022-12-24T23:21:38.342Z,100925.16
2022-12-24T23:24:05.023Z,100923.97
2022-12-24T23:26:31.451Z,100917.03
2022-12-24T23:28:57.966Z,100918.56
2022-12-24T23:31:24.704Z,100915.88
2022-12-24T23:33:51.384Z,100912.19
2022-12-24T23:36:18.107Z,100917.38
2022-12-24T23:38:44.581Z,100919.09
2022-12-24T23:41:11.446Z,100902.56
2022-12-24T23:43:37.967Z,100904.91
2022-12-24T23:46:04.459Z,100912.84
2022-12-24T23:48:30.961Z,100911.63
2022-12-24T23:51:04.996Z,100919.09
2022-12-24T23:53:31.576Z,100927.81
2022-12-24T23:55:57.998Z,100939.31
2022-12-24T23:58:24.382Z,100938.63
